sensor_id;sensor_type;location;lat;lon;timestamp;P1;durP1;ratioP1;P2;durP2;ratioP2
30934;SDS011;51033;42.648;23.292;2024-03-23T00:53:51;5.38;;;4.18;;
30934;SDS011;51033;42.648;23.292;2024-03-23T00:56:16;7.38;;;4.40;;
30934;SDS011;51033;42.648;23.292;2024-03-23T00:58:42;4.60;;;3.58;;
30934;SDS011;51033;42.648;23.292;2024-03-23T01:01:07;4.45;;;3.40;;
30934;SDS011;51033;42.648;23.292;2024-03-23T01:03:33;3.58;;;3.03;;
30934;SDS011;51033;42.648;23.292;2024-03-23T01:05:58;3.17;;;2.40;;
30934;SDS011;51033;42.648;23.292;2024-03-23T01:08:28;7.30;;;2.47;;
30934;SDS011;51033;42.648;23.292;2024-03-23T01:10:57;3.03;;;2.30;;
30934;SDS011;51033;42.648;23.292;2024-03-23T01:13:24;6.30;;;2.42;;
30934;SDS011;51033;42.648;23.292;2024-03-23T01:15:49;5.65;;;3.13;;
30934;SDS011;51033;42.648;23.292;2024-03-23T01:18:16;4.20;;;2.97;;
30934;SDS011;51033;42.648;23.292;2024-03-23T01:20:42;5.90;;;3.50;;
30934;SDS011;51033;42.648;23.292;2024-03-23T01:23:08;3.92;;;3.00;;
30934;SDS011;51033;42.648;23.292;2024-03-23T01:25:33;7.20;;;3.17;;
30934;SDS011;51033;42.648;23.292;2024-03-23T01:27:59;5.45;;;3.42;;
30934;SDS011;51033;42.648;23.292;2024-03-23T01:30:24;3.92;;;2.88;;
30934;SDS011;51033;42.648;23.292;2024-03-23T01:32:49;5.03;;;4.05;;
30934;SDS011;51033;42.648;23.292;2024-03-23T01:35:15;3.55;;;2.90;;
30934;SDS011;51033;42.648;23.292;2024-03-23T01:37:40;4.60;;;3.00;;
30934;SDS011;51033;42.648;23.292;2024-03-23T01:40:05;8.00;;;3.67;;
30934;SDS011;51033;42.648;23.292;2024-03-23T01:42:31;5.60;;;4.28;;
30934;SDS011;51033;42.648;23.292;2024-03-23T01:44:57;6.40;;;4.47;;
30934;SDS011;51033;42.648;23.292;2024-03-23T01:47:22;6.57;;;4.85;;
30934;SDS011;51033;42.648;23.292;2024-03-23T01:49:48;6.70;;;3.97;;
30934;SDS011;51033;42.648;23.292;2024-03-23T01:52:13;4.68;;;3.67;;
30934;SDS011;51033;42.648;23.292;2024-03-23T01:54:39;5.55;;;3.35;;
30934;SDS011;51033;42.648;23.292;2024-03-23T01:57:05;4.40;;;3.35;;
30934;SDS011;51033;42.648;23.292;2024-03-23T01:59:31;3.15;;;2.85;;
30934;SDS011;51033;42.648;23.292;2024-03-23T02:01:57;3.88;;;2.80;;
30934;SDS011;51033;42.648;23.292;2024-03-23T02:04:22;6.85;;;3.28;;
30934;SDS011;51033;42.648;23.292;2024-03-23T02:06:47;4.32;;;3.22;;
30934;SDS011;51033;42.648;23.292;2024-03-23T02:09:13;4.72;;;4.00;;
30934;SDS011;51033;42.648;23.292;2024-03-23T02:11:39;5.22;;;3.20;;
30934;SDS011;51033;42.648;23.292;2024-03-23T02:14:04;5.22;;;3.47;;
30934;SDS011;51033;42.648;23.292;2024-03-23T02:16:29;4.28;;;3.03;;
30934;SDS011;51033;42.648;23.292;2024-03-23T02:18:55;4.38;;;2.78;;
30934;SDS011;51033;42.648;23.292;2024-03-23T02:21:20;5.13;;;3.15;;
30934;SDS011;51033;42.648;23.292;2024-03-23T02:23:45;5.70;;;2.72;;
30934;SDS011;51033;42.648;23.292;2024-03-23T02:26:11;5.78;;;3.33;;
30934;SDS011;51033;42.648;23.292;2024-03-23T02:28:36;5.07;;;3.65;;
30934;SDS011;51033;42.648;23.292;2024-03-23T02:31:02;4.68;;;3.35;;
30934;SDS011;51033;42.648;23.292;2024-03-23T02:33:29;7.35;;;3.97;;
30934;SDS011;51033;42.648;23.292;2024-03-23T02:35:57;2.90;;;2.60;;
30934;SDS011;51033;42.648;23.292;2024-03-23T02:38:23;3.35;;;2.90;;
30934;SDS011;51033;42.648;23.292;2024-03-23T02:40:49;5.97;;;3.03;;
30934;SDS011;51033;42.648;23.292;2024-03-23T02:43:14;4.70;;;3.08;;
30934;SDS011;51033;42.648;23.292;2024-03-23T02:45:40;6.72;;;3.33;;
30934;SDS011;51033;42.648;23.292;2024-03-23T02:48:05;3.38;;;3.00;;
30934;SDS011;51033;42.648;23.292;2024-03-23T02:50:31;8.77;;;5.07;;
30934;SDS011;51033;42.648;23.292;2024-03-23T02:52:56;8.55;;;3.88;;
30934;SDS011;51033;42.648;23.292;2024-03-23T02:55:21;8.55;;;5.22;;
30934;SDS011;51033;42.648;23.292;2024-03-23T02:57:47;7.25;;;5.10;;
30934;SDS011;51033;42.648;23.292;2024-03-23T03:00:12;13.05;;;7.13;;
30934;SDS011;51033;42.648;23.292;2024-03-23T03:02:38;8.40;;;5.57;;
30934;SDS011;51033;42.648;23.292;2024-03-23T03:05:04;8.23;;;6.20;;
30934;SDS011;51033;42.648;23.292;2024-03-23T03:07:31;6.63;;;5.13;;
30934;SDS011;51033;42.648;23.292;2024-03-23T03:09:57;5.90;;;4.75;;
30934;SDS011;51033;42.648;23.292;2024-03-23T03:12:22;7.00;;;4.50;;
30934;SDS011;51033;42.648;23.292;2024-03-23T03:14:47;9.73;;;5.03;;
30934;SDS011;51033;42.648;23.292;2024-03-23T03:17:13;8.15;;;4.28;;
30934;SDS011;51033;42.648;23.292;2024-03-23T03:19:39;5.57;;;4.00;;
30934;SDS011;51033;42.648;23.292;2024-03-23T03:22:05;8.02;;;4.50;;
30934;SDS011;51033;42.648;23.292;2024-03-23T03:24:30;5.63;;;3.95;;
30934;SDS011;51033;42.648;23.292;2024-03-23T03:26:56;9.70;;;5.00;;
30934;SDS011;51033;42.648;23.292;2024-03-23T03:29:22;7.03;;;4.50;;
30934;SDS011;51033;42.648;23.292;2024-03-23T03:31:47;10.00;;;5.88;;
30934;SDS011;51033;42.648;23.292;2024-03-23T03:34:15;6.78;;;4.90;;
30934;SDS011;51033;42.648;23.292;2024-03-23T03:36:40;9.23;;;5.80;;
30934;SDS011;51033;42.648;23.292;2024-03-23T03:39:06;12.60;;;7.57;;
30934;SDS011;51033;42.648;23.292;2024-03-23T03:41:32;14.18;;;9.48;;
30934;SDS011;51033;42.648;23.292;2024-03-23T03:43:57;16.83;;;9.95;;
30934;SDS011;51033;42.648;23.292;2024-03-23T03:46:27;10.13;;;7.00;;
30934;SDS011;51033;42.648;23.292;2024-03-23T03:48:55;8.80;;;5.90;;
30934;SDS011;51033;42.648;23.292;2024-03-23T03:51:20;8.73;;;5.03;;
30934;SDS011;51033;42.648;23.292;2024-03-23T03:53:46;7.53;;;5.10;;
30934;SDS011;51033;42.648;23.292;2024-03-23T03:56:11;7.13;;;4.82;;
30934;SDS011;51033;42.648;23.292;2024-03-23T03:58:36;4.70;;;4.18;;
30934;SDS011;51033;42.648;23.292;2024-03-23T04:01:02;4.63;;;3.92;;
30934;SDS011;51033;42.648;23.292;2024-03-23T04:03:27;8.88;;;5.05;;
30934;SDS011;51033;42.648;23.292;2024-03-23T04:05:53;6.30;;;4.13;;
30934;SDS011;51033;42.648;23.292;2024-03-23T04:08:19;10.20;;;5.40;;
30934;SDS011;51033;42.648;23.292;2024-03-23T04:10:45;6.78;;;4.57;;
30934;SDS011;51033;42.648;23.292;2024-03-23T04:13:11;9.07;;;4.88;;
30934;SDS011;51033;42.648;23.292;2024-03-23T04:15:37;7.40;;;4.18;;
30934;SDS011;51033;42.648;23.292;2024-03-23T04:18:03;5.63;;;3.80;;
30934;SDS011;51033;42.648;23.292;2024-03-23T04:20:28;5.55;;;3.90;;
30934;SDS011;51033;42.648;23.292;2024-03-23T04:22:53;9.05;;;4.40;;
30934;SDS011;51033;42.648;23.292;2024-03-23T04:25:19;9.20;;;4.63;;
30934;SDS011;51033;42.648;23.292;2024-03-23T04:27:44;8.00;;;5.38;;
30934;SDS011;51033;42.648;23.292;2024-03-23T04:30:10;8.45;;;5.65;;
30934;SDS011;51033;42.648;23.292;2024-03-23T04:32:39;8.15;;;5.90;;
30934;SDS011;51033;42.648;23.292;2024-03-23T04:35:05;14.40;;;6.65;;
30934;SDS011;51033;42.648;23.292;2024-03-23T04:37:31;8.90;;;5.60;;
30934;SDS011;51033;42.648;23.292;2024-03-23T04:40:03;16.35;;;6.22;;
30934;SDS011;51033;42.648;23.292;2024-03-23T04:42:29;12.65;;;6.40;;
30934;SDS011;51033;42.648;23.292;2024-03-23T04:44:55;11.10;;;6.93;;
30934;SDS011;51033;42.648;23.292;2024-03-23T04:47:20;10.55;;;6.82;;
30934;SDS011;51033;42.648;23.292;2024-03-23T04:49:46;13.65;;;7.85;;
30934;SDS011;51033;42.648;23.292;2024-03-23T04:52:11;13.27;;;8.23;;
30934;SDS011;51033;42.648;23.292;2024-03-23T04:54:37;10.68;;;6.55;;
30934;SDS011;51033;42.648;23.292;2024-03-23T04:57:02;12.52;;;7.18;;
30934;SDS011;51033;42.648;23.292;2024-03-23T04:59:28;13.30;;;6.72;;
30934;SDS011;51033;42.648;23.292;2024-03-23T05:01:53;13.10;;;8.00;;
30934;SDS011;51033;42.648;23.292;2024-03-23T05:04:19;13.93;;;8.55;;
30934;SDS011;51033;42.648;23.292;2024-03-23T05:06:44;14.50;;;8.82;;
30934;SDS011;51033;42.648;23.292;2024-03-23T05:09:10;17.55;;;9.13;;
30934;SDS011;51033;42.648;23.292;2024-03-23T05:11:39;14.35;;;9.50;;
30934;SDS011;51033;42.648;23.292;2024-03-23T05:14:06;13.93;;;9.80;;
30934;SDS011;51033;42.648;23.292;2024-03-23T05:16:32;13.73;;;9.95;;
30934;SDS011;51033;42.648;23.292;2024-03-23T05:18:57;21.42;;;12.48;;
30934;SDS011;51033;42.648;23.292;2024-03-23T05:21:23;23.48;;;12.57;;
30934;SDS011;51033;42.648;23.292;2024-03-23T05:23:48;20.95;;;11.82;;
30934;SDS011;51033;42.648;23.292;2024-03-23T05:26:14;18.17;;;12.45;;
30934;SDS011;51033;42.648;23.292;2024-03-23T05:28:39;26.58;;;14.15;;
30934;SDS011;51033;42.648;23.292;2024-03-23T05:31:05;22.40;;;14.43;;
30934;SDS011;51033;42.648;23.292;2024-03-23T05:33:30;18.80;;;11.55;;
30934;SDS011;51033;42.648;23.292;2024-03-23T05:35:56;20.23;;;14.18;;
30934;SDS011;51033;42.648;23.292;2024-03-23T05:38:22;19.42;;;12.85;;
30934;SDS011;51033;42.648;23.292;2024-03-23T05:40:57;20.73;;;13.48;;
30934;SDS011;51033;42.648;23.292;2024-03-23T05:43:24;21.42;;;12.82;;
30934;SDS011;51033;42.648;23.292;2024-03-23T05:45:56;21.85;;;13.15;;
30934;SDS011;51033;42.648;23.292;2024-03-23T05:48:22;18.90;;;13.50;;
30934;SDS011;51033;42.648;23.292;2024-03-23T05:50:48;22.70;;;13.30;;
30934;SDS011;51033;42.648;23.292;2024-03-23T05:53:15;19.50;;;13.07;;
30934;SDS011;51033;42.648;23.292;2024-03-23T05:55:41;31.13;;;15.70;;
30934;SDS011;51033;42.648;23.292;2024-03-23T05:58:06;23.33;;;14.32;;
30934;SDS011;51033;42.648;23.292;2024-03-23T06:00:32;22.85;;;14.30;;
30934;SDS011;51033;42.648;23.292;2024-03-23T06:02:57;29.48;;;14.35;;
30934;SDS011;51033;42.648;23.292;2024-03-23T06:05:22;22.00;;;13.70;;
30934;SDS011;51033;42.648;23.292;2024-03-23T06:07:48;23.48;;;13.60;;
30934;SDS011;51033;42.648;23.292;2024-03-23T06:10:15;25.02;;;16.90;;
30934;SDS011;51033;42.648;23.292;2024-03-23T06:12:41;27.55;;;14.57;;
30934;SDS011;51033;42.648;23.292;2024-03-23T06:15:06;24.88;;;14.38;;
30934;SDS011;51033;42.648;23.292;2024-03-23T06:17:35;29.00;;;14.93;;
30934;SDS011;51033;42.648;23.292;2024-03-23T06:20:01;27.55;;;15.93;;
30934;SDS011;51033;42.648;23.292;2024-03-23T06:22:26;22.75;;;15.98;;
30934;SDS011;51033;42.648;23.292;2024-03-23T06:24:52;25.27;;;16.00;;
30934;SDS011;51033;42.648;23.292;2024-03-23T06:27:17;34.90;;;17.52;;
30934;SDS011;51033;42.648;23.292;2024-03-23T06:29:42;29.98;;;16.05;;
30934;SDS011;51033;42.648;23.292;2024-03-23T06:32:08;24.95;;;16.50;;
30934;SDS011;51033;42.648;23.292;2024-03-23T06:34:33;28.33;;;14.75;;
30934;SDS011;51033;42.648;23.292;2024-03-23T06:36:58;23.92;;;15.00;;
30934;SDS011;51033;42.648;23.292;2024-03-23T06:39:24;24.67;;;14.70;;
30934;SDS011;51033;42.648;23.292;2024-03-23T06:41:52;23.08;;;13.25;;
30934;SDS011;51033;42.648;23.292;2024-03-23T06:44:19;23.77;;;14.45;;
30934;SDS011;51033;42.648;23.292;2024-03-23T06:46:45;24.30;;;15.13;;
30934;SDS011;51033;42.648;23.292;2024-03-23T06:49:10;18.02;;;11.57;;
30934;SDS011;51033;42.648;23.292;2024-03-23T06:51:36;16.58;;;12.00;;
30934;SDS011;51033;42.648;23.292;2024-03-23T06:54:02;20.08;;;13.95;;
30934;SDS011;51033;42.648;23.292;2024-03-23T06:56:29;23.20;;;13.30;;
30934;SDS011;51033;42.648;23.292;2024-03-23T06:58:54;22.85;;;13.50;;
30934;SDS011;51033;42.648;23.292;2024-03-23T07:01:20;23.95;;;14.60;;
30934;SDS011;51033;42.648;23.292;2024-03-23T07:03:46;17.70;;;12.23;;
30934;SDS011;51033;42.648;23.292;2024-03-23T07:06:11;21.25;;;13.20;;
30934;SDS011;51033;42.648;23.292;2024-03-23T07:08:36;21.40;;;13.00;;
30934;SDS011;51033;42.648;23.292;2024-03-23T07:11:02;21.65;;;13.50;;
30934;SDS011;51033;42.648;23.292;2024-03-23T07:13:28;20.98;;;13.70;;
30934;SDS011;51033;42.648;23.292;2024-03-23T07:15:53;22.02;;;13.38;;
30934;SDS011;51033;42.648;23.292;2024-03-23T07:18:21;25.83;;;13.82;;
30934;SDS011;51033;42.648;23.292;2024-03-23T07:20:56;22.30;;;13.95;;
30934;SDS011;51033;42.648;23.292;2024-03-23T07:23:22;22.20;;;14.55;;
30934;SDS011;51033;42.648;23.292;2024-03-23T07:26:04;26.92;;;14.98;;
30934;SDS011;51033;42.648;23.292;2024-03-23T07:28:33;30.05;;;15.93;;
30934;SDS011;51033;42.648;23.292;2024-03-23T07:33:28;22.35;;;17.33;;
30934;SDS011;51033;42.648;23.292;2024-03-23T07:35:54;25.35;;;15.18;;
30934;SDS011;51033;42.648;23.292;2024-03-23T07:38:19;28.63;;;16.52;;
30934;SDS011;51033;42.648;23.292;2024-03-23T07:40:45;26.42;;;15.27;;
30934;SDS011;51033;42.648;23.292;2024-03-23T07:43:10;23.98;;;14.38;;
30934;SDS011;51033;42.648;23.292;2024-03-23T07:45:36;18.00;;;13.30;;
30934;SDS011;51033;42.648;23.292;2024-03-23T07:48:03;22.52;;;13.70;;
30934;SDS011;51033;42.648;23.292;2024-03-23T07:50:29;39.70;;;15.00;;
30934;SDS011;51033;42.648;23.292;2024-03-23T07:52:54;22.13;;;14.07;;
30934;SDS011;51033;42.648;23.292;2024-03-23T07:55:19;27.52;;;15.57;;
30934;SDS011;51033;42.648;23.292;2024-03-23T07:57:46;22.95;;;14.93;;
30934;SDS011;51033;42.648;23.292;2024-03-23T08:00:11;23.60;;;16.17;;
30934;SDS011;51033;42.648;23.292;2024-03-23T08:02:38;20.33;;;13.73;;
30934;SDS011;51033;42.648;23.292;2024-03-23T08:05:04;21.23;;;13.02;;
30934;SDS011;51033;42.648;23.292;2024-03-23T08:07:29;29.48;;;15.40;;
30934;SDS011;51033;42.648;23.292;2024-03-23T08:09:55;28.33;;;15.18;;
30934;SDS011;51033;42.648;23.292;2024-03-23T08:12:20;20.00;;;13.77;;
30934;SDS011;51033;42.648;23.292;2024-03-23T08:14:45;24.55;;;15.00;;
30934;SDS011;51033;42.648;23.292;2024-03-23T08:17:11;25.55;;;14.70;;
30934;SDS011;51033;42.648;23.292;2024-03-23T08:19:36;21.95;;;14.07;;
30934;SDS011;51033;42.648;23.292;2024-03-23T08:22:02;31.73;;;14.80;;
30934;SDS011;51033;42.648;23.292;2024-03-23T08:24:27;21.27;;;14.20;;
30934;SDS011;51033;42.648;23.292;2024-03-23T08:26:54;24.02;;;14.70;;
30934;SDS011;51033;42.648;23.292;2024-03-23T08:29:19;18.20;;;13.02;;
30934;SDS011;51033;42.648;23.292;2024-03-23T08:31:45;23.80;;;14.15;;
30934;SDS011;51033;42.648;23.292;2024-03-23T08:34:10;23.40;;;15.00;;
30934;SDS011;51033;42.648;23.292;2024-03-23T08:36:36;25.48;;;14.57;;
30934;SDS011;51033;42.648;23.292;2024-03-23T08:39:01;22.85;;;14.02;;
30934;SDS011;51033;42.648;23.292;2024-03-23T08:41:26;31.52;;;15.20;;
30934;SDS011;51033;42.648;23.292;2024-03-23T08:43:52;37.45;;;13.65;;
30934;SDS011;51033;42.648;23.292;2024-03-23T08:46:17;24.77;;;13.57;;
30934;SDS011;51033;42.648;23.292;2024-03-23T08:48:43;19.77;;;13.77;;
30934;SDS011;51033;42.648;23.292;2024-03-23T08:51:11;20.40;;;12.88;;
30934;SDS011;51033;42.648;23.292;2024-03-23T08:53:40;19.92;;;13.05;;
30934;SDS011;51033;42.648;23.292;2024-03-23T08:56:06;18.75;;;12.15;;
30934;SDS011;51033;42.648;23.292;2024-03-23T08:58:33;25.77;;;13.95;;
30934;SDS011;51033;42.648;23.292;2024-03-23T09:01:03;20.55;;;13.77;;
30934;SDS011;51033;42.648;23.292;2024-03-23T09:03:29;24.42;;;13.85;;
30934;SDS011;51033;42.648;23.292;2024-03-23T09:05:55;29.10;;;13.50;;
30934;SDS011;51033;42.648;23.292;2024-03-23T09:08:21;18.92;;;12.40;;
30934;SDS011;51033;42.648;23.292;2024-03-23T09:10:47;16.38;;;12.30;;
30934;SDS011;51033;42.648;23.292;2024-03-23T09:13:13;21.50;;;13.00;;
30934;SDS011;51033;42.648;23.292;2024-03-23T09:15:45;22.52;;;13.65;;
30934;SDS011;51033;42.648;23.292;2024-03-23T09:18:15;22.05;;;13.18;;
30934;SDS011;51033;42.648;23.292;2024-03-23T09:20:40;20.17;;;12.80;;
30934;SDS011;51033;42.648;23.292;2024-03-23T09:23:06;19.35;;;12.60;;
30934;SDS011;51033;42.648;23.292;2024-03-23T09:25:31;18.63;;;12.68;;
30934;SDS011;51033;42.648;23.292;2024-03-23T09:27:57;23.48;;;12.88;;
30934;SDS011;51033;42.648;23.292;2024-03-23T09:30:23;19.60;;;11.40;;
30934;SDS011;51033;42.648;23.292;2024-03-23T09:32:48;16.17;;;10.15;;
30934;SDS011;51033;42.648;23.292;2024-03-23T09:35:14;21.38;;;10.23;;
30934;SDS011;51033;42.648;23.292;2024-03-23T09:37:39;18.38;;;10.43;;
30934;SDS011;51033;42.648;23.292;2024-03-23T09:40:05;12.63;;;8.70;;
30934;SDS011;51033;42.648;23.292;2024-03-23T09:42:40;15.77;;;9.05;;
30934;SDS011;51033;42.648;23.292;2024-03-23T09:45:17;12.05;;;7.63;;
30934;SDS011;51033;42.648;23.292;2024-03-23T09:47:45;18.67;;;10.15;;
30934;SDS011;51033;42.648;23.292;2024-03-23T09:50:12;15.90;;;10.60;;
30934;SDS011;51033;42.648;23.292;2024-03-23T09:52:39;15.60;;;10.18;;
30934;SDS011;51033;42.648;23.292;2024-03-23T09:55:05;14.13;;;9.40;;
30934;SDS011;51033;42.648;23.292;2024-03-23T09:57:31;17.38;;;9.98;;
30934;SDS011;51033;42.648;23.292;2024-03-23T09:59:56;18.90;;;10.63;;
30934;SDS011;51033;42.648;23.292;2024-03-23T10:02:23;19.02;;;10.48;;
30934;SDS011;51033;42.648;23.292;2024-03-23T10:04:49;19.63;;;11.90;;
30934;SDS011;51033;42.648;23.292;2024-03-23T10:07:15;20.25;;;11.05;;
30934;SDS011;51033;42.648;23.292;2024-03-23T10:09:43;20.30;;;11.30;;
30934;SDS011;51033;42.648;23.292;2024-03-23T10:12:10;19.08;;;10.65;;
30934;SDS011;51033;42.648;23.292;2024-03-23T10:14:37;16.25;;;10.80;;
30934;SDS011;51033;42.648;23.292;2024-03-23T10:17:12;19.90;;;11.38;;
30934;SDS011;51033;42.648;23.292;2024-03-23T10:19:49;15.27;;;10.73;;
30934;SDS011;51033;42.648;23.292;2024-03-23T10:22:19;16.27;;;10.60;;
30934;SDS011;51033;42.648;23.292;2024-03-23T10:24:46;18.60;;;12.43;;
30934;SDS011;51033;42.648;23.292;2024-03-23T10:27:18;19.58;;;11.45;;
30934;SDS011;51033;42.648;23.292;2024-03-23T10:29:45;14.60;;;10.05;;
30934;SDS011;51033;42.648;23.292;2024-03-23T10:32:11;23.38;;;10.60;;
30934;SDS011;51033;42.648;23.292;2024-03-23T10:34:38;17.75;;;10.73;;
30934;SDS011;51033;42.648;23.292;2024-03-23T10:37:04;15.70;;;9.45;;
30934;SDS011;51033;42.648;23.292;2024-03-23T10:39:37;14.52;;;9.95;;
30934;SDS011;51033;42.648;23.292;2024-03-23T10:42:04;17.50;;;9.75;;
30934;SDS011;51033;42.648;23.292;2024-03-23T10:44:30;16.77;;;9.38;;
30934;SDS011;51033;42.648;23.292;2024-03-23T10:46:59;16.00;;;9.02;;
30934;SDS011;51033;42.648;23.292;2024-03-23T10:49:31;15.15;;;9.35;;
30934;SDS011;51033;42.648;23.292;2024-03-23T10:51:58;14.60;;;8.90;;
30934;SDS011;51033;42.648;23.292;2024-03-23T10:54:25;14.55;;;9.60;;
30934;SDS011;51033;42.648;23.292;2024-03-23T10:57:04;17.17;;;10.25;;
30934;SDS011;51033;42.648;23.292;2024-03-23T10:59:34;13.18;;;8.48;;
30934;SDS011;51033;42.648;23.292;2024-03-23T11:02:02;15.05;;;9.40;;
30934;SDS011;51033;42.648;23.292;2024-03-23T11:04:31;19.73;;;9.63;;
30934;SDS011;51033;42.648;23.292;2024-03-23T11:06:59;14.68;;;8.75;;
30934;SDS011;51033;42.648;23.292;2024-03-23T11:12:04;12.77;;;8.77;;
30934;SDS011;51033;42.648;23.292;2024-03-23T11:14:57;14.40;;;8.38;;
30934;SDS011;51033;42.648;23.292;2024-03-23T11:17:25;12.68;;;8.68;;
30934;SDS011;51033;42.648;23.292;2024-03-23T11:25:02;17.17;;;9.77;;
30934;SDS011;51033;42.648;23.292;2024-03-23T11:27:28;14.63;;;9.15;;
30934;SDS011;51033;42.648;23.292;2024-03-23T11:29:53;16.27;;;8.15;;
30934;SDS011;51033;42.648;23.292;2024-03-23T11:32:19;14.75;;;8.13;;
30934;SDS011;51033;42.648;23.292;2024-03-23T11:34:44;16.42;;;7.50;;
30934;SDS011;51033;42.648;23.292;2024-03-23T11:37:09;12.35;;;7.72;;
30934;SDS011;51033;42.648;23.292;2024-03-23T11:39:35;12.90;;;8.05;;
30934;SDS011;51033;42.648;23.292;2024-03-23T11:42:00;12.70;;;7.13;;
30934;SDS011;51033;42.648;23.292;2024-03-23T11:44:26;17.63;;;8.77;;
30934;SDS011;51033;42.648;23.292;2024-03-23T11:46:52;12.73;;;7.93;;
30934;SDS011;51033;42.648;23.292;2024-03-23T11:51:49;12.77;;;7.30;;
30934;SDS011;51033;42.648;23.292;2024-03-23T11:54:15;12.77;;;7.30;;
30934;SDS011;51033;42.648;23.292;2024-03-23T11:56:40;13.98;;;8.60;;
30934;SDS011;51033;42.648;23.292;2024-03-23T11:59:09;9.05;;;6.70;;
30934;SDS011;51033;42.648;23.292;2024-03-23T12:01:34;12.45;;;8.27;;
30934;SDS011;51033;42.648;23.292;2024-03-23T12:04:00;10.95;;;7.97;;
30934;SDS011;51033;42.648;23.292;2024-03-23T12:06:25;11.85;;;7.88;;
30934;SDS011;51033;42.648;23.292;2024-03-23T12:08:50;11.75;;;7.07;;
30934;SDS011;51033;42.648;23.292;2024-03-23T12:11:16;15.82;;;7.20;;
30934;SDS011;51033;42.648;23.292;2024-03-23T12:13:43;9.98;;;7.97;;
30934;SDS011;51033;42.648;23.292;2024-03-23T12:16:14;12.43;;;7.75;;
30934;SDS011;51033;42.648;23.292;2024-03-23T12:18:46;10.40;;;7.60;;
30934;SDS011;51033;42.648;23.292;2024-03-23T12:21:15;12.30;;;6.30;;
30934;SDS011;51033;42.648;23.292;2024-03-23T12:23:42;12.30;;;6.53;;
30934;SDS011;51033;42.648;23.292;2024-03-23T12:26:09;9.60;;;5.43;;
30934;SDS011;51033;42.648;23.292;2024-03-23T12:28:35;10.65;;;5.97;;
30934;SDS011;51033;42.648;23.292;2024-03-23T12:31:00;13.85;;;5.70;;
30934;SDS011;51033;42.648;23.292;2024-03-23T12:33:25;8.38;;;5.00;;
30934;SDS011;51033;42.648;23.292;2024-03-23T12:35:51;5.07;;;3.15;;
30934;SDS011;51033;42.648;23.292;2024-03-23T12:38:17;9.52;;;5.25;;
30934;SDS011;51033;42.648;23.292;2024-03-23T12:40:49;7.43;;;2.92;;
30934;SDS011;51033;42.648;23.292;2024-03-23T12:43:15;9.00;;;4.40;;
30934;SDS011;51033;42.648;23.292;2024-03-23T12:45:41;6.00;;;3.53;;
30934;SDS011;51033;42.648;23.292;2024-03-23T12:48:06;8.88;;;3.53;;
30934;SDS011;51033;42.648;23.292;2024-03-23T12:50:32;7.57;;;2.90;;
30934;SDS011;51033;42.648;23.292;2024-03-23T12:52:58;3.78;;;1.95;;
30934;SDS011;51033;42.648;23.292;2024-03-23T12:55:23;2.33;;;1.50;;
30934;SDS011;51033;42.648;23.292;2024-03-23T12:57:49;2.58;;;1.70;;
30934;SDS011;51033;42.648;23.292;2024-03-23T13:00:14;4.78;;;2.30;;
30934;SDS011;51033;42.648;23.292;2024-03-23T13:02:41;4.57;;;2.28;;
30934;SDS011;51033;42.648;23.292;2024-03-23T13:05:07;3.97;;;1.70;;
30934;SDS011;51033;42.648;23.292;2024-03-23T13:07:34;1.50;;;1.17;;
30934;SDS011;51033;42.648;23.292;2024-03-23T13:10:00;2.72;;;1.27;;
30934;SDS011;51033;42.648;23.292;2024-03-23T13:12:25;2.63;;;2.05;;
30934;SDS011;51033;42.648;23.292;2024-03-23T13:14:51;2.88;;;2.30;;
30934;SDS011;51033;42.648;23.292;2024-03-23T13:17:16;3.85;;;2.00;;
30934;SDS011;51033;42.648;23.292;2024-03-23T13:19:42;4.78;;;1.65;;
30934;SDS011;51033;42.648;23.292;2024-03-23T13:22:07;3.58;;;1.65;;
30934;SDS011;51033;42.648;23.292;2024-03-23T13:24:33;3.00;;;1.25;;
30934;SDS011;51033;42.648;23.292;2024-03-23T13:26:58;16.13;;;2.10;;
30934;SDS011;51033;42.648;23.292;2024-03-23T13:29:24;12.15;;;2.55;;
30934;SDS011;51033;42.648;23.292;2024-03-23T13:31:50;1.48;;;1.13;;
30934;SDS011;51033;42.648;23.292;2024-03-23T13:34:17;2.35;;;0.90;;
30934;SDS011;51033;42.648;23.292;2024-03-23T13:36:43;2.97;;;1.00;;
30934;SDS011;51033;42.648;23.292;2024-03-23T13:39:10;3.70;;;1.40;;
30934;SDS011;51033;42.648;23.292;2024-03-23T13:41:39;3.47;;;1.42;;
30934;SDS011;51033;42.648;23.292;2024-03-23T13:44:06;5.25;;;2.10;;
30934;SDS011;51033;42.648;23.292;2024-03-23T13:46:32;3.55;;;1.60;;
30934;SDS011;51033;42.648;23.292;2024-03-23T13:48:58;2.28;;;1.58;;
30934;SDS011;51033;42.648;23.292;2024-03-23T13:51:24;3.22;;;2.08;;
30934;SDS011;51033;42.648;23.292;2024-03-23T13:53:52;2.10;;;1.17;;
30934;SDS011;51033;42.648;23.292;2024-03-23T13:56:18;2.95;;;1.20;;
30934;SDS011;51033;42.648;23.292;2024-03-23T13:58:43;2.95;;;1.38;;
30934;SDS011;51033;42.648;23.292;2024-03-23T14:01:11;1.77;;;1.15;;
30934;SDS011;51033;42.648;23.292;2024-03-23T14:03:38;1.30;;;1.20;;
30934;SDS011;51033;42.648;23.292;2024-03-23T14:06:03;1.33;;;1.20;;
30934;SDS011;51033;42.648;23.292;2024-03-23T14:08:29;2.33;;;1.88;;
30934;SDS011;51033;42.648;23.292;2024-03-23T14:10:57;3.67;;;1.95;;
30934;SDS011;51033;42.648;23.292;2024-03-23T14:13:22;1.80;;;1.45;;
30934;SDS011;51033;42.648;23.292;2024-03-23T14:15:52;4.10;;;1.40;;
30934;SDS011;51033;42.648;23.292;2024-03-23T14:18:18;2.83;;;1.38;;
30934;SDS011;51033;42.648;23.292;2024-03-23T14:20:43;4.53;;;1.85;;
30934;SDS011;51033;42.648;23.292;2024-03-23T14:23:09;6.65;;;1.20;;
30934;SDS011;51033;42.648;23.292;2024-03-23T14:25:34;2.67;;;1.10;;
30934;SDS011;51033;42.648;23.292;2024-03-23T14:28:00;2.55;;;1.17;;
30934;SDS011;51033;42.648;23.292;2024-03-23T14:30:25;3.40;;;1.30;;
30934;SDS011;51033;42.648;23.292;2024-03-23T14:32:50;5.20;;;1.30;;
30934;SDS011;51033;42.648;23.292;2024-03-23T14:35:16;1.80;;;1.42;;
30934;SDS011;51033;42.648;23.292;2024-03-23T14:37:41;3.38;;;1.40;;
30934;SDS011;51033;42.648;23.292;2024-03-23T14:40:07;3.25;;;2.25;;
30934;SDS011;51033;42.648;23.292;2024-03-23T14:42:33;2.25;;;1.90;;
30934;SDS011;51033;42.648;23.292;2024-03-23T14:44:59;42.17;;;5.50;;
30934;SDS011;51033;42.648;23.292;2024-03-23T14:47:24;4.20;;;1.80;;
30934;SDS011;51033;42.648;23.292;2024-03-23T14:49:50;3.45;;;1.92;;
30934;SDS011;51033;42.648;23.292;2024-03-23T14:52:16;4.93;;;1.80;;
30934;SDS011;51033;42.648;23.292;2024-03-23T14:54:43;3.15;;;2.40;;
30934;SDS011;51033;42.648;23.292;2024-03-23T14:57:08;14.73;;;3.13;;
30934;SDS011;51033;42.648;23.292;2024-03-23T14:59:35;5.15;;;2.22;;
30934;SDS011;51033;42.648;23.292;2024-03-23T15:02:00;4.63;;;2.65;;
30934;SDS011;51033;42.648;23.292;2024-03-23T15:04:26;3.45;;;2.42;;
30934;SDS011;51033;42.648;23.292;2024-03-23T15:06:51;2.45;;;2.25;;
30934;SDS011;51033;42.648;23.292;2024-03-23T15:09:17;4.13;;;2.80;;
30934;SDS011;51033;42.648;23.292;2024-03-23T15:11:43;4.43;;;3.00;;
30934;SDS011;51033;42.648;23.292;2024-03-23T15:14:08;6.90;;;2.42;;
30934;SDS011;51033;42.648;23.292;2024-03-23T15:16:35;6.38;;;2.30;;
30934;SDS011;51033;42.648;23.292;2024-03-23T15:19:04;3.85;;;2.60;;
30934;SDS011;51033;42.648;23.292;2024-03-23T15:21:33;3.38;;;2.67;;
30934;SDS011;51033;42.648;23.292;2024-03-23T15:23:58;5.95;;;2.65;;